Time;durP1;ratioP1;P1;durP2;ratioP2;P2;SDS_P1;SDS_P2;PMS_P1;PMS_P2;Temp;Humidity;BMP_temperature;BMP_pressure;BME280_temperature;BME280_humidity;BME280_pressure;Samples;Min_cycle;Max_cycle;Signal;HPM_P1;HPM_P2
2021/12/04 00:02:27;;;;;;;;;;;4.60;99.90;;;;;;4992943;28;20297;-84
2021/12/04 00:04:54;;;;;;;;;;;4.50;99.90;;;;;;4992018;28;19929;-82
2021/12/04 00:07:39;;;;;;;;;;;4.50;99.90;;;;;;4992648;28;19930;-84
2021/12/04 00:10:17;;;;;;;;;;;4.50;99.90;;;;;;4992467;28;19947;-82
2021/12/04 00:13:07;;;;;;;;;;;5.40;99.90;;;;;;4990501;28;20048;-83
2021/12/04 00:15:45;;;;;;;;;;;4.50;99.90;;;;;;4990355;28;20447;-83
2021/12/04 00:18:39;;;;;;;;;;;;;;;;;;;;;
2021/12/04 00:21:35;;;;;;;;;;;4.50;99.90;;;;;;4947880;29;19949;-83
2021/12/04 00:24:07;;;;;;;;;;;3.20;99.90;;;;;;4932696;29;20061;-83
2021/12/04 00:29:41;;;;;;;;;;;4.20;99.90;;;;;;4957318;28;19921;-83
2021/12/04 00:35:21;;;;;;;;;;;4.50;99.90;;;;;;5007321;28;20451;-83
2021/12/04 00:49:41;;;;;;;;;;;4.50;99.90;;;;;;4992126;28;20510;-83
2021/12/04 00:52:07;;;;;;;;;;;4.50;99.90;;;;;;4992729;28;19976;-81
2021/12/04 00:54:32;;;;;;;;;;;4.50;99.90;;;;;;4991446;28;19925;-83
2021/12/04 00:56:57;;;;;;;;;;;4.40;99.90;;;;;;4976755;28;20529;-83
2021/12/04 00:59:24;;;;;;;;;;;4.40;99.90;;;;;;4992423;28;19929;-84
2021/12/04 01:01:49;;;;;;;;;;;4.50;99.90;;;;;;4984680;28;19922;-83
2021/12/04 01:04:16;;;;;;;;;;;4.40;99.90;;;;;;4973302;28;19926;-83
2021/12/04 01:06:42;;;;;;;;;;;4.40;99.90;;;;;;5132369;23;20024;-83
2021/12/04 01:09:08;;;;;;;;;;;4.40;99.90;;;;;;5166805;23;20350;-83
2021/12/04 01:11:34;;;;;;;;;;;4.40;99.90;;;;;;4992054;28;19926;-82
2021/12/04 01:13:59;;;;;;;;;;;4.40;99.90;;;;;;5004919;28;19925;-83
2021/12/04 01:16:25;;;;;;;;;;;4.40;99.90;;;;;;5008912;28;19937;-84
2021/12/04 01:18:50;;;;;;;;;;;4.40;99.90;;;;;;5006779;28;20317;-86
2021/12/04 01:21:16;;;;;;;;;;;4.40;99.90;;;;;;4982756;28;19928;-84
2021/12/04 01:23:42;;;;;;;;;;;4.40;99.90;;;;;;4990652;28;19933;-83
2021/12/04 01:26:11;;;;;;;;;;;4.40;99.90;;;;;;4989848;28;20364;-84
2021/12/04 01:39:19;;;;;;;;;;;4.60;99.90;;;;;;4981170;28;20013;-84
2021/12/04 01:41:44;;;;;;;;;;;3.80;99.90;;;;;;4990451;28;20020;-83
2021/12/04 01:44:14;;;;;;;;;;;4.40;99.90;;;;;;4990783;28;19925;-83
2021/12/04 01:47:20;;;;;;;;;;;4.40;99.90;;;;;;4991700;28;19925;-83
2021/12/04 01:49:49;;;;;;;;;;;4.40;99.90;;;;;;4927242;29;20291;-83
2021/12/04 01:55:19;;;;;;;;;;;3.90;99.90;;;;;;5058201;23;20374;-82
2021/12/04 01:57:45;;;;;;;;;;;4.40;99.90;;;;;;4999592;28;20000;-83
2021/12/04 02:00:11;;;;;;;;;;;4.40;99.90;;;;;;4991456;28;19933;-83
2021/12/04 02:02:52;;;;;;;;;;;4.40;99.90;;;;;;5149476;23;20403;-84
2021/12/04 02:05:39;;;;;;;;;;;4.40;99.90;;;;;;4971562;28;20285;-83
2021/12/04 02:18:26;;;;;;;;;;;4.40;99.90;;;;;;5180633;22;20013;-83
2021/12/04 02:24:13;;;;;;;;;;;2.80;99.90;;;;;;4975532;28;19929;-84
2021/12/04 02:44:33;;;;;;;;;;;4.30;99.90;;;;;;5517406;22;19925;-84
2021/12/04 02:47:23;;;;;;;;;;;4.30;99.90;;;;;;4981424;28;20547;-83
2021/12/04 02:50:16;;;;;;;;;;;4.90;99.90;;;;;;4994520;28;19992;-82
2021/12/04 02:53:10;;;;;;;;;;;4.40;99.90;;;;;;4994157;28;19929;-84
2021/12/04 02:55:36;;;;;;;;;;;3.50;99.90;;;;;;4988414;28;19929;-83
2021/12/04 02:58:22;;;;;;;;;;;6.20;99.90;;;;;;4986379;28;19925;-82
2021/12/04 03:00:54;;;;;;;;;;;4.30;99.90;;;;;;4982285;28;19926;-83
2021/12/04 03:03:20;;;;;;;;;;;4.40;99.90;;;;;;4991788;28;19932;-83
2021/12/04 03:05:48;;;;;;;;;;;4.30;99.90;;;;;;4999455;28;19926;-84
2021/12/04 03:08:14;;;;;;;;;;;4.20;99.90;;;;;;5011634;28;19965;-87
2021/12/04 03:10:54;;;;;;;;;;;4.30;99.90;;;;;;4992213;28;20007;-84
2021/12/04 03:13:21;;;;;;;;;;;4.40;99.90;;;;;;4994142;28;20028;-83
2021/12/04 03:15:55;;;;;;;;;;;4.20;99.90;;;;;;4994208;28;19929;-83
2021/12/04 03:18:53;;;;;;;;;;;4.30;99.90;;;;;;4991442;28;19929;-83
2021/12/04 03:21:20;;;;;;;;;;;4.30;99.90;;;;;;4980774;28;19953;-85
2021/12/04 03:47:29;;;;;;;;;;;4.20;99.90;;;;;;5008370;28;19917;-83
2021/12/04 04:07:30;;;;;;;;;;;2.50;99.90;;;;;;5010297;28;19967;-85
2021/12/04 04:10:23;;;;;;;;;;;4.20;99.90;;;;;;4992662;28;20373;-84
2021/12/04 04:12:55;;;;;;;;;;;3.50;99.90;;;;;;4991032;28;20016;-83
2021/12/04 04:15:33;;;;;;;;;;;4.30;99.90;;;;;;4993215;28;19921;-83
2021/12/04 04:21:42;;;;;;;;;;;4.20;99.90;;;;;;5006867;28;19921;-83
2021/12/04 04:24:17;;;;;;;;;;;4.20;99.90;;;;;;4980644;28;20388;-83
2021/12/04 04:26:43;;;;;;;;;;;4.20;99.90;;;;;;4981462;28;20017;-83
2021/12/04 04:29:21;;;;;;;;;;;4.20;99.90;;;;;;4989349;28;19929;-84
2021/12/04 05:12:24;;;;;;;;;;;4.20;99.90;;;;;;4990722;28;19925;-82
2021/12/04 05:14:56;;;;;;;;;;;4.20;99.90;;;;;;4987211;28;19926;-83
2021/12/04 05:17:41;;;;;;;;;;;4.20;99.90;;;;;;4989234;28;19976;-83
2021/12/04 05:20:07;;;;;;;;;;;4.20;99.90;;;;;;4991675;28;20381;-83
2021/12/04 05:22:33;;;;;;;;;;;4.20;99.90;;;;;;4990793;28;19921;-84
2021/12/04 05:24:58;;;;;;;;;;;4.20;99.90;;;;;;4988308;28;19925;-84
2021/12/04 05:27:24;;;;;;;;;;;4.60;99.90;;;;;;4989890;28;19929;-84
2021/12/04 05:29:49;;;;;;;;;;;4.20;99.90;;;;;;4990576;28;19932;-83
2021/12/04 05:32:16;;;;;;;;;;;4.20;99.90;;;;;;4991247;28;20016;-84
2021/12/04 05:35:00;;;;;;;;;;;4.40;99.90;;;;;;4991254;28;20534;-84
2021/12/04 05:37:31;;;;;;;;;;;4.20;99.90;;;;;;4991342;28;20008;-85
2021/12/04 06:10:17;;;;;;;;;;;2.60;99.90;;;;;;5004408;28;20001;-84
2021/12/04 06:12:52;;;;;;;;;;;4.00;99.90;;;;;;4992617;28;20510;-84
2021/12/04 06:15:33;;;;;;;;;;;4.10;99.90;;;;;;4994712;28;20270;-84
2021/12/04 06:18:15;;;;;;;;;;;4.10;99.90;;;;;;4994487;28;20812;-84
2021/12/04 06:27:30;;;;;;;;;;;2.50;99.90;;;;;;5006648;28;19998;-84
2021/12/04 06:30:17;;;;;;;;;;;4.00;99.90;;;;;;4982417;28;19952;-84
2021/12/04 06:32:55;;;;;;;;;;;4.10;99.90;;;;;;4992646;28;19969;-84
2021/12/04 06:35:21;;;;;;;;;;;4.00;99.90;;;;;;4994647;28;19926;-85
2021/12/04 06:37:48;;;;;;;;;;;3.90;99.90;;;;;;4994544;28;19933;-83
2021/12/04 06:40:23;;;;;;;;;;;4.10;99.90;;;;;;4994170;28;19929;-85
2021/12/04 06:49:28;;;;;;;;;;;4.10;99.90;;;;;;5357420;23;19936;-84
2021/12/04 06:51:57;;;;;;;;;;;5.30;99.90;;;;;;5010008;28;19952;-86
2021/12/04 06:57:46;;;;;;;;;;;3.60;99.90;;;;;;5010850;28;19987;-86
2021/12/04 07:26:19;;;;;;;;;;;3.20;99.90;;;;;;4963362;28;20314;-85
2021/12/04 07:29:00;;;;;;;;;;;4.10;99.90;;;;;;4952577;28;19930;-87
2021/12/04 07:32:00;;;;;;;;;;;4.10;99.90;;;;;;4956048;28;19930;-86
2021/12/04 07:43:45;;;;;;;;;;;4.10;99.90;;;;;;5287247;23;19925;-84
2021/12/04 07:46:11;;;;;;;;;;;4.10;99.90;;;;;;4992436;28;20350;-84
2021/12/04 07:51:14;;;;;;;;;;;4.10;99.90;;;;;;5478306;23;19925;-85
2021/12/04 07:59:36;;;;;;;;;;;4.10;99.90;;;;;;5152047;23;19933;-84
2021/12/04 08:05:38;;;;;;;;;;;4.90;99.90;;;;;;4973424;28;20369;-84
2021/12/04 08:08:16;;;;;;;;;;;4.00;99.90;;;;;;4982933;28;19944;-85
2021/12/04 08:11:04;;;;;;;;;;;5.10;99.90;;;;;;4983515;28;19929;-84
2021/12/04 08:13:48;;;;;;;;;;;4.00;99.90;;;;;;4980361;28;19926;-85
2021/12/04 08:26:17;;;;;;;;;;;4.00;99.90;;;;;;4989213;28;20557;-89
2021/12/04 08:29:20;;;;;;;;;;;3.30;99.90;;;;;;4970799;28;20005;-86
2021/12/04 08:32:29;;;;;;;;;;;4.00;99.90;;;;;;4972345;28;19926;-87
2021/12/04 08:35:31;;;;;;;;;;;4.00;99.90;;;;;;4967853;28;19926;-86
2021/12/04 08:41:25;;;;;;;;;;;4.00;99.90;;;;;;4992991;28;20024;-86
2021/12/04 08:43:53;;;;;;;;;;;4.00;99.90;;;;;;4991963;28;20581;-85
2021/12/04 08:46:23;;;;;;;;;;;4.10;99.90;;;;;;4990085;28;19930;-87
2021/12/04 08:48:49;;;;;;;;;;;4.10;99.90;;;;;;4976388;28;19944;-87
2021/12/04 08:51:30;;;;;;;;;;;4.90;99.90;;;;;;4974234;28;20436;-87
2021/12/04 08:54:18;;;;;;;;;;;4.00;99.90;;;;;;4971143;28;20008;-87
2021/12/04 08:56:43;;;;;;;;;;;4.10;99.90;;;;;;4972047;28;19930;-86
2021/12/04 08:59:35;;;;;;;;;;;4.10;99.90;;;;;;4972404;28;19926;-86
2021/12/04 09:02:12;;;;;;;;;;;4.10;99.90;;;;;;4969907;28;19968;-85
2021/12/04 09:18:16;;;;;;;;;;;3.40;99.90;;;;;;5003509;28;20012;-84
2021/12/04 09:21:19;;;;;;;;;;;4.10;99.90;;;;;;4972450;28;19934;-84
2021/12/04 10:02:35;;;;;;;;;;;3.30;99.90;;;;;;4959479;28;20000;-83
2021/12/04 10:06:14;;;;;;;;;;;4.20;99.90;;;;;;4960213;28;20012;-85
2021/12/04 10:34:27;;;;;;;;;;;4.40;99.90;;;;;;5013240;28;20003;-90
2021/12/04 10:37:24;;;;;;;;;;;4.40;99.90;;;;;;5007662;28;19925;-89
2021/12/04 10:43:15;;;;;;;;;;;5.60;99.90;;;;;;4997940;28;19933;-86
2021/12/04 10:45:50;;;;;;;;;;;4.50;99.90;;;;;;4992758;28;19932;-88
2021/12/04 10:48:49;;;;;;;;;;;4.60;99.90;;;;;;4996920;28;19948;-88
2021/12/04 11:36:42;;;;;;;;;;;4.80;99.90;;;;;;4995161;28;19929;-91
2021/12/04 11:58:40;;;;;;;;;;;4.40;99.90;;;;;;5001949;23;20388;-90
2021/12/04 12:01:06;;;;;;;;;;;4.90;99.90;;;;;;4994553;28;20032;-88
2021/12/04 12:06:08;;;;;;;;;;;5.70;99.90;;;;;;5019351;23;19925;-91
2021/12/04 12:12:34;;;;;;;;;;;4.20;99.90;;;;;;4985338;28;19924;-88
2021/12/04 12:15:32;;;;;;;;;;;4.90;99.90;;;;;;4971021;28;19926;-90
2021/12/04 12:46:54;;;;;;;;;;;4.90;99.90;;;;;;4970347;28;19941;-92
2021/12/04 12:56:17;;;;;;;;;;;4.50;99.90;;;;;;5115069;23;20445;-89
2021/12/04 13:39:30;;;;;;;;;;;4.80;99.90;;;;;;4972375;28;19929;-89
2021/12/04 13:45:41;;;;;;;;;;;5.40;99.90;;;;;;4961518;28;19925;-87
2021/12/04 13:48:26;;;;;;;;;;;4.60;99.90;;;;;;4956541;28;20282;-90
2021/12/04 13:50:59;;;;;;;;;;;3.20;99.90;;;;;;4956814;28;20375;-89
2021/12/04 13:53:35;;;;;;;;;;;4.80;99.90;;;;;;4965168;28;19926;-89
2021/12/04 13:59:56;;;;;;;;;;;4.80;99.90;;;;;;4970106;28;20021;-87
2021/12/04 14:22:01;;;;;;;;;;;3.10;99.90;;;;;;5001163;28;19976;-88
2021/12/04 14:25:03;;;;;;;;;;;4.80;99.90;;;;;;4992427;28;19933;-92
2021/12/04 14:27:34;;;;;;;;;;;4.40;99.90;;;;;;4928722;28;19934;-89
2021/12/04 14:30:38;;;;;;;;;;;3.50;99.90;;;;;;4973614;28;20016;-87
2021/12/04 14:37:00;;;;;;;;;;;4.80;99.90;;;;;;4996214;28;20013;-91
2021/12/04 14:39:56;;;;;;;;;;;3.50;99.90;;;;;;4978158;28;19933;-88
2021/12/04 15:06:29;;;;;;;;;;;4.80;99.90;;;;;;4993947;28;19926;-89
2021/12/04 15:24:26;;;;;;;;;;;5.20;99.90;;;;;;5004895;28;19964;-88
2021/12/04 15:53:15;;;;;;;;;;;3.10;99.90;;;;;;5011406;28;19932;-86
2021/12/04 16:06:11;;;;;;;;;;;4.40;99.90;;;;;;5001296;28;19960;-86
2021/12/04 16:08:38;;;;;;;;;;;4.70;99.90;;;;;;5009893;28;19930;-87
2021/12/04 16:17:36;;;;;;;;;;;4.70;99.90;;;;;;5008045;28;19930;-86
2021/12/04 16:22:46;;;;;;;;;;;5.50;99.90;;;;;;5212086;22;19929;-85
2021/12/04 16:29:01;;;;;;;;;;;4.10;99.90;;;;;;5388776;23;19933;-84
2021/12/04 16:41:35;;;;;;;;;;;4.70;99.90;;;;;;5011265;23;19925;-84
2021/12/04 16:47:53;;;;;;;;;;;4.70;99.90;;;;;;5014009;28;20471;-84
2021/12/04 16:50:30;;;;;;;;;;;4.90;99.90;;;;;;4987658;28;20013;-84
2021/12/04 16:58:34;;;;;;;;;;;4.70;99.90;;;;;;4994484;28;19925;-88
2021/12/04 17:01:02;;;;;;;;;;;4.70;99.90;;;;;;4995428;28;20389;-89
2021/12/04 17:03:29;;;;;;;;;;;4.70;99.90;;;;;;4995189;28;19932;-87
2021/12/04 17:05:55;;;;;;;;;;;4.70;99.90;;;;;;4995235;28;19931;-88
2021/12/04 17:08:33;;;;;;;;;;;5.10;99.90;;;;;;4994569;28;19930;-87
2021/12/04 17:10:58;;;;;;;;;;;4.70;99.90;;;;;;4995884;28;20487;-88
2021/12/04 17:13:26;;;;;;;;;;;4.70;99.90;;;;;;4997682;28;19929;-89
2021/12/04 17:15:53;;;;;;;;;;;4.70;99.90;;;;;;4981633;28;20004;-89
2021/12/04 17:18:23;;;;;;;;;;;4.60;99.90;;;;;;4995641;28;19930;-89
2021/12/04 17:20:50;;;;;;;;;;;4.70;99.90;;;;;;4996129;28;19929;-91
2021/12/04 17:23:17;;;;;;;;;;;4.70;99.90;;;;;;4993840;28;19964;-91
2021/12/04 17:25:52;;;;;;;;;;;5.20;99.90;;;;;;4995552;28;20028;-91
2021/12/04 17:28:20;;;;;;;;;;;3.40;99.90;;;;;;4996081;28;19947;-92
2021/12/04 17:30:48;;;;;;;;;;;4.70;99.90;;;;;;5001314;28;19948;-91
2021/12/04 17:33:13;;;;;;;;;;;5.70;99.90;;;;;;4992997;28;19976;-91
2021/12/04 17:35:39;;;;;;;;;;;4.60;99.90;;;;;;4995801;28;19941;-90
2021/12/04 17:38:16;;;;;;;;;;;6.30;99.90;;;;;;4995594;28;19925;-90
2021/12/04 17:40:47;;;;;;;;;;;4.70;99.90;;;;;;4994257;28;19934;-92
2021/12/04 17:43:13;;;;;;;;;;;4.70;99.90;;;;;;5011672;28;19926;-91
2021/12/04 17:45:53;;;;;;;;;;;4.70;99.90;;;;;;5007612;28;20372;-92
2021/12/04 17:48:19;;;;;;;;;;;4.70;99.90;;;;;;4977899;28;19930;-92
2021/12/04 17:50:44;;;;;;;;;;;4.50;99.90;;;;;;5001290;23;19925;-90
2021/12/04 17:53:10;;;;;;;;;;;4.60;99.90;;;;;;5010552;28;19949;-90
2021/12/04 17:55:36;;;;;;;;;;;4.70;99.90;;;;;;5008099;28;20301;-93
2021/12/04 17:58:02;;;;;;;;;;;4.70;99.90;;;;;;4995829;28;19929;-91
2021/12/04 18:00:38;;;;;;;;;;;4.70;99.90;;;;;;4984309;28;20389;-91
2021/12/04 18:03:05;;;;;;;;;;;4.70;99.90;;;;;;4993559;28;19996;-92
2021/12/04 18:05:31;;;;;;;;;;;4.70;99.90;;;;;;4994839;28;19937;-91
2021/12/04 18:07:57;;;;;;;;;;;4.70;99.90;;;;;;4994967;28;20019;-91
2021/12/04 18:10:24;;;;;;;;;;;4.70;99.90;;;;;;4993991;28;19940;-90
2021/12/04 18:12:51;;;;;;;;;;;4.70;99.90;;;;;;4994105;28;19940;-91
2021/12/04 18:15:20;;;;;;;;;;;4.70;99.90;;;;;;5003078;28;19922;-91
2021/12/04 18:17:46;;;;;;;;;;;4.70;99.90;;;;;;4996500;28;19972;-91
2021/12/04 18:20:11;;;;;;;;;;;4.60;99.90;;;;;;4994670;28;20248;-90
2021/12/04 18:22:37;;;;;;;;;;;4.60;99.90;;;;;;5000438;23;19925;-91
2021/12/04 18:25:03;;;;;;;;;;;4.60;99.90;;;;;;4992436;28;19930;-91
2021/12/04 18:27:34;;;;;;;;;;;4.60;99.90;;;;;;4990572;28;19925;-90
2021/12/04 18:30:00;;;;;;;;;;;4.60;99.90;;;;;;4992582;28;19926;-90
2021/12/04 18:32:25;;;;;;;;;;;4.60;99.90;;;;;;4992540;28;19945;-89
2021/12/04 18:34:51;;;;;;;;;;;4.60;99.90;;;;;;4990112;28;19929;-90
2021/12/04 18:37:16;;;;;;;;;;;4.60;99.90;;;;;;4991769;28;19925;-91
2021/12/04 18:39:42;;;;;;;;;;;4.60;99.90;;;;;;4993667;28;19948;-90
2021/12/04 18:42:07;;;;;;;;;;;4.60;99.90;;;;;;4993637;28;20270;-91
2021/12/04 18:44:34;;;;;;;;;;;4.60;99.90;;;;;;4994143;28;19925;-90
2021/12/04 18:47:00;;;;;;;;;;;4.60;99.90;;;;;;4994299;28;20369;-91
2021/12/04 18:49:26;;;;;;;;;;;4.60;99.90;;;;;;4993968;28;19925;-91
2021/12/04 18:51:52;;;;;;;;;;;4.60;99.90;;;;;;4989690;28;20154;-91
2021/12/04 18:54:18;;;;;;;;;;;4.60;99.90;;;;;;4994023;28;20324;-91
2021/12/04 18:56:44;;;;;;;;;;;4.60;99.90;;;;;;4994246;28;20513;-91
2021/12/04 18:59:09;;;;;;;;;;;4.60;99.90;;;;;;4998310;28;19940;-90
2021/12/04 19:01:35;;;;;;;;;;;4.60;99.90;;;;;;5006164;28;19930;-90
2021/12/04 19:04:01;;;;;;;;;;;4.60;99.90;;;;;;4998285;28;19930;-89
2021/12/04 19:06:27;;;;;;;;;;;4.50;99.90;;;;;;4999026;28;19926;-90
2021/12/04 19:08:54;;;;;;;;;;;4.50;99.90;;;;;;4989988;23;19925;-91
2021/12/04 19:11:21;;;;;;;;;;;4.60;99.90;;;;;;4977561;28;20345;-90
2021/12/04 19:13:48;;;;;;;;;;;4.60;99.90;;;;;;4969560;28;19932;-90
2021/12/04 19:16:13;;;;;;;;;;;4.50;99.90;;;;;;4958349;28;19926;-89
2021/12/04 19:18:39;;;;;;;;;;;4.50;99.90;;;;;;4967946;28;19940;-90
2021/12/04 19:21:07;;;;;;;;;;;4.50;99.90;;;;;;4977687;28;19925;-90
2021/12/04 19:23:33;;;;;;;;;;;4.50;99.90;;;;;;4990343;28;19944;-89
2021/12/04 19:25:59;;;;;;;;;;;4.50;99.90;;;;;;4972445;28;19969;-90
2021/12/04 19:28:25;;;;;;;;;;;4.60;99.90;;;;;;4978294;28;19929;-90
2021/12/04 19:31:05;;;;;;;;;;;4.50;99.90;;;;;;4977055;28;19930;-91
2021/12/04 19:52:38;;;;;;;;;;;4.60;99.90;;;;;;4977542;28;19930;-90
2021/12/04 19:55:08;;;;;;;;;;;4.60;99.90;;;;;;4977316;28;19926;-90
2021/12/04 19:57:45;;;;;;;;;;;4.60;99.90;;;;;;4977792;28;19980;-90
2021/12/04 20:00:16;;;;;;;;;;;4.60;99.90;;;;;;4977706;28;19932;-90
2021/12/04 20:13:48;;;;;;;;;;;4.50;99.90;;;;;;4978360;28;19961;-91
2021/12/04 20:16:25;;;;;;;;;;;4.50;99.90;;;;;;4977976;28;19934;-92
2021/12/04 20:18:51;;;;;;;;;;;4.50;99.90;;;;;;4977311;28;19932;-93
2021/12/04 20:21:19;;;;;;;;;;;4.50;99.90;;;;;;4978587;28;20389;-92
2021/12/04 20:23:45;;;;;;;;;;;4.50;99.90;;;;;;4977930;28;19925;-91
2021/12/04 20:26:12;;;;;;;;;;;4.50;99.90;;;;;;4977075;28;19972;-91
2021/12/04 20:34:02;;;;;;;;;;;4.40;99.90;;;;;;4996910;28;19974;-92
2021/12/04 21:50:24;;;;;;;;;;;4.50;99.90;;;;;;4976319;28;19976;-90
2021/12/04 21:52:52;;;;;;;;;;;4.50;99.90;;;;;;4976332;28;20369;-90
2021/12/04 22:09:21;;;;;;;;;;;4.50;99.90;;;;;;4981648;28;19930;-91
2021/12/04 22:12:04;;;;;;;;;;;4.50;99.90;;;;;;4975862;28;19925;-91
2021/12/04 22:17:26;;;;;;;;;;;4.50;99.90;;;;;;4975650;28;19922;-91
2021/12/04 22:20:20;;;;;;;;;;;4.50;99.90;;;;;;4974041;28;19929;-90
2021/12/04 22:58:03;;;;;;;;;;;4.50;99.90;;;;;;4972620;28;19926;-90
2021/12/04 23:00:38;;;;;;;;;;;4.50;99.90;;;;;;4991685;28;19926;-90
2021/12/04 23:03:08;;;;;;;;;;;4.40;99.90;;;;;;4996204;28;19926;-89
2021/12/04 23:11:12;;;;;;;;;;;4.70;99.90;;;;;;4957868;28;19926;-91
2021/12/04 23:13:39;;;;;;;;;;;4.30;99.90;;;;;;4966907;28;19922;-91
2021/12/04 23:16:14;;;;;;;;;;;4.30;99.90;;;;;;4970326;28;20309;-90
2021/12/04 23:19:41;;;;;;;;;;;4.30;99.90;;;;;;4952635;28;20491;-90
2021/12/04 23:32:50;;;;;;;;;;;4.30;99.90;;;;;;4958277;28;19970;-89
2021/12/04 23:35:34;;;;;;;;;;;4.20;99.90;;;;;;4954914;28;19922;-89
2021/12/04 23:41:39;;;;;;;;;;;4.20;99.90;;;;;;4957988;28;19930;-90
2021/12/04 23:45:12;;;;;;;;;;;4.20;99.90;;;;;;4957242;28;19930;-90
